Terminal Aerodrome Forecast
Issued by NWS Binghamton, NY

Home | Current Version | Previous Version | Text Only | Print | Product List | Glossary On
Versions: 1 2 3 4 5 6 7 8 9 10 11 12 13 14 15 16 17 18 19 20 21
000
FTUS41 KBGM 301700
TAFSYR
TAF
KSYR 301720Z 3018/3118 26015G25KT P6SM OVC040
     FM302300 27010KT P6SM BKN050
      TEMPO 3023/3103 6SM -SNRA OVC035
     FM311200 28005KT P6SM BKN250
     FM311500 31004KT P6SM OVC050=

USA.gov is the U.S. government's official web portal to all federal, state and local government web resources and services.